Coquitlam, Canada
Current Conditions -  °F | °C
As of 1:00 AM on Monday 22 Dec 2014 (Local Time) from CYVR Reporting Station
Clear Clear  
Wind Chill: 39°   Ceiling: Unl
Heat Index: 43°   Visibility: 15mi
Dew Point: 41°   Wind: 7mph
Humidity: 93%   Direction: 280°W
Pressure: 30.1"   Gusts: NA
Location:  49.27°N, 122.78°W
Report Text: CYVR 220900Z 28006KT 15SM SKC 06/05 A3010 RMK SLP194
Loading
Personal Weather Stations






























Interactive Weather Map New forecast layout! Learn more

10-Day Weather Forecast

Advertisements
Track Severe Weather on mobile